sensor_id;sensor_type;location;lat;lon;timestamp;pressure;altitude;pressure_sealevel;temperature;humidity
21828;BME280;11076;47.942;11.804;2023-04-26T00:02:50;94224.16;;;4.19;100.00
21828;BME280;11076;47.942;11.804;2023-04-26T00:07:52;94222.81;;;4.09;100.00
21828;BME280;11076;47.942;11.804;2023-04-26T00:12:55;94228.91;;;4.09;100.00
21828;BME280;11076;47.942;11.804;2023-04-26T00:17:57;94232.38;;;4.25;100.00
21828;BME280;11076;47.942;11.804;2023-04-26T00:22:59;94227.81;;;4.33;100.00
21828;BME280;11076;47.942;11.804;2023-04-26T00:28:02;94216.69;;;4.38;100.00
21828;BME280;11076;47.942;11.804;2023-04-26T00:33:05;94215.56;;;4.47;100.00
21828;BME280;11076;47.942;11.804;2023-04-26T00:38:07;94213.53;;;4.49;100.00
21828;BME280;11076;47.942;11.804;2023-04-26T00:43:10;94217.22;;;4.48;100.00
21828;BME280;11076;47.942;11.804;2023-04-26T00:48:12;94221.75;;;4.54;100.00
21828;BME280;11076;47.942;11.804;2023-04-26T00:53:15;94220.44;;;4.65;100.00
21828;BME280;11076;47.942;11.804;2023-04-26T00:58:18;94219.41;;;4.60;100.00
21828;BME280;11076;47.942;11.804;2023-04-26T01:03:21;94223.66;;;4.61;100.00
21828;BME280;11076;47.942;11.804;2023-04-26T01:08:23;94235.91;;;4.62;100.00
21828;BME280;11076;47.942;11.804;2023-04-26T01:13:27;94231.25;;;4.64;100.00
21828;BME280;11076;47.942;11.804;2023-04-26T01:18:30;94230.88;;;4.67;100.00
21828;BME280;11076;47.942;11.804;2023-04-26T01:23:32;94227.97;;;4.62;100.00
21828;BME280;11076;47.942;11.804;2023-04-26T01:28:35;94234.72;;;4.49;100.00
21828;BME280;11076;47.942;11.804;2023-04-26T01:33:39;94244.69;;;4.47;100.00
21828;BME280;11076;47.942;11.804;2023-04-26T01:38:41;94241.78;;;4.42;100.00
21828;BME280;11076;47.942;11.804;2023-04-26T01:43:44;94250.34;;;4.44;100.00
21828;BME280;11076;47.942;11.804;2023-04-26T01:48:46;94254.19;;;4.42;100.00
21828;BME280;11076;47.942;11.804;2023-04-26T01:53:49;94251.16;;;4.45;100.00
21828;BME280;11076;47.942;11.804;2023-04-26T01:58:51;94254.34;;;4.55;100.00
21828;BME280;11076;47.942;11.804;2023-04-26T02:03:54;94255.47;;;4.46;100.00
21828;BME280;11076;47.942;11.804;2023-04-26T02:08:56;94256.75;;;4.35;100.00
21828;BME280;11076;47.942;11.804;2023-04-26T02:13:59;94264.69;;;4.35;100.00
21828;BME280;11076;47.942;11.804;2023-04-26T02:19:01;94265.06;;;4.32;100.00
21828;BME280;11076;47.942;11.804;2023-04-26T02:24:06;94259.50;;;4.27;100.00
21828;BME280;11076;47.942;11.804;2023-04-26T02:29:08;94254.94;;;4.21;100.00
21828;BME280;11076;47.942;11.804;2023-04-26T02:34:11;94247.19;;;4.34;100.00
21828;BME280;11076;47.942;11.804;2023-04-26T02:39:13;94249.72;;;4.27;100.00
21828;BME280;11076;47.942;11.804;2023-04-26T02:44:16;94254.84;;;4.29;100.00
21828;BME280;11076;47.942;11.804;2023-04-26T02:49:18;94250.75;;;4.26;100.00
21828;BME280;11076;47.942;11.804;2023-04-26T02:54:21;94253.03;;;4.14;100.00
21828;BME280;11076;47.942;11.804;2023-04-26T02:59:23;94253.75;;;4.08;100.00
21828;BME280;11076;47.942;11.804;2023-04-26T03:04:26;94252.81;;;4.01;100.00
21828;BME280;11076;47.942;11.804;2023-04-26T03:09:29;94254.56;;;3.94;100.00
21828;BME280;11076;47.942;11.804;2023-04-26T03:14:32;94242.78;;;3.82;100.00
21828;BME280;11076;47.942;11.804;2023-04-26T03:19:35;94251.09;;;3.78;100.00
21828;BME280;11076;47.942;11.804;2023-04-26T03:24:39;94256.84;;;3.82;100.00
21828;BME280;11076;47.942;11.804;2023-04-26T03:29:42;94258.56;;;3.90;100.00
21828;BME280;11076;47.942;11.804;2023-04-26T03:34:45;94259.91;;;3.86;100.00
21828;BME280;11076;47.942;11.804;2023-04-26T03:39:49;94262.84;;;3.91;100.00
21828;BME280;11076;47.942;11.804;2023-04-26T03:44:56;94260.94;;;3.99;100.00
21828;BME280;11076;47.942;11.804;2023-04-26T03:49:59;94274.38;;;3.98;100.00
21828;BME280;11076;47.942;11.804;2023-04-26T03:55:02;94271.59;;;3.91;100.00
21828;BME280;11076;47.942;11.804;2023-04-26T04:00:06;94266.78;;;3.95;100.00
21828;BME280;11076;47.942;11.804;2023-04-26T04:05:17;94273.09;;;3.94;100.00
21828;BME280;11076;47.942;11.804;2023-04-26T04:10:19;94274.72;;;3.95;100.00
21828;BME280;11076;47.942;11.804;2023-04-26T04:15:24;94271.63;;;4.06;100.00
21828;BME280;11076;47.942;11.804;2023-04-26T04:20:28;94280.38;;;4.07;100.00
21828;BME280;11076;47.942;11.804;2023-04-26T04:25:31;94291.44;;;4.10;100.00
21828;BME280;11076;47.942;11.804;2023-04-26T04:30:37;94295.72;;;4.11;100.00
21828;BME280;11076;47.942;11.804;2023-04-26T04:35:40;94289.69;;;4.17;100.00
21828;BME280;11076;47.942;11.804;2023-04-26T04:40:43;94292.06;;;4.12;100.00
21828;BME280;11076;47.942;11.804;2023-04-26T04:45:45;94296.63;;;4.18;100.00
21828;BME280;11076;47.942;11.804;2023-04-26T04:50:48;94302.66;;;4.27;100.00
21828;BME280;11076;47.942;11.804;2023-04-26T04:55:50;94309.47;;;4.22;100.00
21828;BME280;11076;47.942;11.804;2023-04-26T05:00:53;94302.94;;;4.32;100.00
21828;BME280;11076;47.942;11.804;2023-04-26T05:06:02;94311.72;;;4.48;100.00
21828;BME280;11076;47.942;11.804;2023-04-26T05:11:05;94309.56;;;4.73;100.00
21828;BME280;11076;47.942;11.804;2023-04-26T05:16:08;94318.97;;;4.75;100.00
21828;BME280;11076;47.942;11.804;2023-04-26T05:21:11;94323.34;;;4.83;100.00
21828;BME280;11076;47.942;11.804;2023-04-26T05:26:15;94324.38;;;4.82;100.00
21828;BME280;11076;47.942;11.804;2023-04-26T05:31:18;94333.50;;;4.80;100.00
21828;BME280;11076;47.942;11.804;2023-04-26T05:36:29;94339.13;;;4.91;100.00
21828;BME280;11076;47.942;11.804;2023-04-26T05:41:33;94338.81;;;5.16;100.00
21828;BME280;11076;47.942;11.804;2023-04-26T05:46:35;94340.59;;;5.45;100.00
21828;BME280;11076;47.942;11.804;2023-04-26T05:51:38;94340.88;;;5.78;100.00
21828;BME280;11076;47.942;11.804;2023-04-26T05:56:40;94345.00;;;5.81;100.00
21828;BME280;11076;47.942;11.804;2023-04-26T06:01:44;94346.44;;;5.62;100.00
21828;BME280;11076;47.942;11.804;2023-04-26T06:06:46;94351.38;;;5.65;100.00
21828;BME280;11076;47.942;11.804;2023-04-26T06:11:49;94347.22;;;5.99;100.00
21828;BME280;11076;47.942;11.804;2023-04-26T06:16:51;94354.56;;;6.53;100.00
21828;BME280;11076;47.942;11.804;2023-04-26T06:21:54;94361.56;;;7.51;100.00
21828;BME280;11076;47.942;11.804;2023-04-26T06:26:58;94358.38;;;7.89;97.79
21828;BME280;11076;47.942;11.804;2023-04-26T06:32:01;94356.13;;;8.66;98.92
21828;BME280;11076;47.942;11.804;2023-04-26T06:37:04;94358.38;;;8.02;88.59
21828;BME280;11076;47.942;11.804;2023-04-26T06:42:07;94364.97;;;8.60;92.21
21828;BME280;11076;47.942;11.804;2023-04-26T06:47:34;94373.16;;;8.38;93.93
21828;BME280;11076;47.942;11.804;2023-04-26T06:52:37;94378.44;;;8.31;92.56
21828;BME280;11076;47.942;11.804;2023-04-26T06:57:40;94366.44;;;9.27;90.57
21828;BME280;11076;47.942;11.804;2023-04-26T07:02:42;94378.44;;;8.91;91.01
21828;BME280;11076;47.942;11.804;2023-04-26T07:07:45;94378.22;;;7.93;89.20
21828;BME280;11076;47.942;11.804;2023-04-26T07:12:48;94383.66;;;7.45;91.83
21828;BME280;11076;47.942;11.804;2023-04-26T07:17:50;94377.38;;;7.11;92.79
21828;BME280;11076;47.942;11.804;2023-04-26T07:22:52;94375.16;;;7.21;92.16
21828;BME280;11076;47.942;11.804;2023-04-26T07:27:55;94367.25;;;7.48;93.15
21828;BME280;11076;47.942;11.804;2023-04-26T07:32:57;94379.47;;;8.10;92.25
21828;BME280;11076;47.942;11.804;2023-04-26T07:38:00;94367.78;;;8.91;90.16
21828;BME280;11076;47.942;11.804;2023-04-26T07:43:02;94366.56;;;9.46;84.09
21828;BME280;11076;47.942;11.804;2023-04-26T07:48:05;94361.94;;;9.98;82.84
21828;BME280;11076;47.942;11.804;2023-04-26T07:53:07;94357.94;;;10.14;79.37
21828;BME280;11076;47.942;11.804;2023-04-26T07:58:10;94357.53;;;10.17;79.59
21828;BME280;11076;47.942;11.804;2023-04-26T08:03:15;94350.41;;;10.04;77.89
21828;BME280;11076;47.942;11.804;2023-04-26T08:08:19;94364.63;;;10.30;77.38
21828;BME280;11076;47.942;11.804;2023-04-26T08:13:22;94366.50;;;10.54;76.50
21828;BME280;11076;47.942;11.804;2023-04-26T08:18:24;94356.53;;;11.42;75.42
21828;BME280;11076;47.942;11.804;2023-04-26T08:23:26;94357.03;;;11.51;72.23
21828;BME280;11076;47.942;11.804;2023-04-26T08:28:29;94354.00;;;11.78;68.05
21828;BME280;11076;47.942;11.804;2023-04-26T08:33:32;94352.97;;;11.48;70.21
21828;BME280;11076;47.942;11.804;2023-04-26T08:38:34;94351.72;;;11.32;67.04
21828;BME280;11076;47.942;11.804;2023-04-26T08:43:38;94350.75;;;11.08;66.29
21828;BME280;11076;47.942;11.804;2023-04-26T08:48:40;94344.72;;;11.80;68.32
21828;BME280;11076;47.942;11.804;2023-04-26T08:53:42;94348.44;;;12.09;63.94
21828;BME280;11076;47.942;11.804;2023-04-26T08:58:45;94347.19;;;11.82;63.61
21828;BME280;11076;47.942;11.804;2023-04-26T09:03:48;94347.41;;;11.50;64.95
21828;BME280;11076;47.942;11.804;2023-04-26T09:08:52;94344.47;;;11.51;64.22
21828;BME280;11076;47.942;11.804;2023-04-26T09:13:55;94339.06;;;12.42;62.65
21828;BME280;11076;47.942;11.804;2023-04-26T09:18:58;94334.66;;;11.94;62.54
21828;BME280;11076;47.942;11.804;2023-04-26T09:24:00;94342.47;;;11.47;63.14
21828;BME280;11076;47.942;11.804;2023-04-26T09:29:16;94338.19;;;10.90;60.87
21828;BME280;11076;47.942;11.804;2023-04-26T09:34:19;94338.75;;;11.48;61.47
21828;BME280;11076;47.942;11.804;2023-04-26T09:39:35;94344.03;;;12.15;62.25
21828;BME280;11076;47.942;11.804;2023-04-26T09:44:38;94343.16;;;12.45;60.56
21828;BME280;11076;47.942;11.804;2023-04-26T09:49:48;94328.59;;;13.00;59.39
21828;BME280;11076;47.942;11.804;2023-04-26T09:54:53;94327.59;;;13.53;59.11
21828;BME280;11076;47.942;11.804;2023-04-26T09:59:55;94319.00;;;13.16;53.67
21828;BME280;11076;47.942;11.804;2023-04-26T10:04:57;94321.59;;;13.63;57.77
21828;BME280;11076;47.942;11.804;2023-04-26T10:10:01;94317.25;;;13.09;56.41
21828;BME280;11076;47.942;11.804;2023-04-26T10:15:07;94309.59;;;13.01;55.13
21828;BME280;11076;47.942;11.804;2023-04-26T10:20:12;94322.31;;;11.93;58.20
21828;BME280;11076;47.942;11.804;2023-04-26T10:25:15;94311.88;;;11.85;59.92
21828;BME280;11076;47.942;11.804;2023-04-26T10:30:21;94318.31;;;11.84;58.75
21828;BME280;11076;47.942;11.804;2023-04-26T10:35:26;94310.84;;;12.63;56.85
21828;BME280;11076;47.942;11.804;2023-04-26T10:40:39;94306.69;;;12.56;57.34
21828;BME280;11076;47.942;11.804;2023-04-26T10:45:43;94303.69;;;13.16;55.91
21828;BME280;11076;47.942;11.804;2023-04-26T10:56:03;94295.13;;;12.79;56.01
21828;BME280;11076;47.942;11.804;2023-04-26T11:01:16;94289.66;;;12.85;55.87
21828;BME280;11076;47.942;11.804;2023-04-26T11:06:18;94282.66;;;13.25;54.04
21828;BME280;11076;47.942;11.804;2023-04-26T11:11:24;94276.69;;;12.82;54.49
21828;BME280;11076;47.942;11.804;2023-04-26T11:16:27;94273.31;;;11.44;57.30
21828;BME280;11076;47.942;11.804;2023-04-26T11:21:30;94267.75;;;10.60;60.79
21828;BME280;11076;47.942;11.804;2023-04-26T11:26:33;94271.06;;;11.59;57.24
21828;BME280;11076;47.942;11.804;2023-04-26T11:31:39;94259.81;;;12.23;54.21
21828;BME280;11076;47.942;11.804;2023-04-26T11:36:43;94248.03;;;13.23;53.47
21828;BME280;11076;47.942;11.804;2023-04-26T11:41:45;94249.13;;;14.30;51.97
21828;BME280;11076;47.942;11.804;2023-04-26T11:46:48;94252.91;;;12.74;54.51
21828;BME280;11076;47.942;11.804;2023-04-26T11:51:51;94256.66;;;12.14;55.15
21828;BME280;11076;47.942;11.804;2023-04-26T11:56:53;94254.44;;;13.22;53.22
21828;BME280;11076;47.942;11.804;2023-04-26T12:01:56;94262.69;;;13.44;52.20
21828;BME280;11076;47.942;11.804;2023-04-26T12:06:59;94266.28;;;12.98;53.68
21828;BME280;11076;47.942;11.804;2023-04-26T12:12:02;94268.66;;;12.23;52.69
21828;BME280;11076;47.942;11.804;2023-04-26T12:17:07;94255.16;;;13.29;50.51
21828;BME280;11076;47.942;11.804;2023-04-26T12:22:11;94254.28;;;13.41;53.03
21828;BME280;11076;47.942;11.804;2023-04-26T12:27:19;94252.34;;;13.12;52.37
21828;BME280;11076;47.942;11.804;2023-04-26T12:32:23;94266.69;;;12.30;52.68
21828;BME280;11076;47.942;11.804;2023-04-26T12:37:25;94261.34;;;11.77;55.17
21828;BME280;11076;47.942;11.804;2023-04-26T12:42:27;94259.09;;;12.27;52.00
21828;BME280;11076;47.942;11.804;2023-04-26T12:47:30;94256.56;;;12.44;51.83
21828;BME280;11076;47.942;11.804;2023-04-26T12:52:33;94252.22;;;12.43;52.50
21828;BME280;11076;47.942;11.804;2023-04-26T12:57:36;94255.63;;;12.50;50.88
21828;BME280;11076;47.942;11.804;2023-04-26T13:02:39;94248.38;;;12.63;50.86
21828;BME280;11076;47.942;11.804;2023-04-26T13:07:42;94249.44;;;13.14;50.09
21828;BME280;11076;47.942;11.804;2023-04-26T13:12:45;94231.81;;;13.30;49.91
21828;BME280;11076;47.942;11.804;2023-04-26T13:17:48;94232.38;;;15.01;48.35
21828;BME280;11076;47.942;11.804;2023-04-26T13:22:50;94226.72;;;14.25;48.20
21828;BME280;11076;47.942;11.804;2023-04-26T13:27:53;94214.72;;;14.49;47.71
21828;BME280;11076;47.942;11.804;2023-04-26T13:32:56;94214.59;;;14.78;46.96
21828;BME280;11076;47.942;11.804;2023-04-26T13:38:00;94217.00;;;13.90;47.65
21828;BME280;11076;47.942;11.804;2023-04-26T13:43:03;94219.19;;;12.78;50.51
21828;BME280;11076;47.942;11.804;2023-04-26T13:48:05;94211.63;;;12.63;52.66
21828;BME280;11076;47.942;11.804;2023-04-26T13:53:08;94222.63;;;12.14;51.97
21828;BME280;11076;47.942;11.804;2023-04-26T13:58:10;94215.16;;;13.04;51.70
21828;BME280;11076;47.942;11.804;2023-04-26T14:03:13;94208.06;;;13.39;50.60
21828;BME280;11076;47.942;11.804;2023-04-26T14:08:15;94210.28;;;13.59;50.80
21828;BME280;11076;47.942;11.804;2023-04-26T14:13:17;94201.38;;;14.04;49.23
21828;BME280;11076;47.942;11.804;2023-04-26T14:18:20;94190.78;;;14.14;47.45
21828;BME280;11076;47.942;11.804;2023-04-26T14:23:22;94196.22;;;13.68;47.58
21828;BME280;11076;47.942;11.804;2023-04-26T14:28:25;94195.34;;;13.80;47.88
21828;BME280;11076;47.942;11.804;2023-04-26T14:33:27;94203.84;;;13.43;47.57
21828;BME280;11076;47.942;11.804;2023-04-26T14:38:30;94192.25;;;13.71;47.15
21828;BME280;11076;47.942;11.804;2023-04-26T14:43:32;94192.00;;;14.06;47.88
21828;BME280;11076;47.942;11.804;2023-04-26T14:48:35;94192.34;;;13.93;46.98
21828;BME280;11076;47.942;11.804;2023-04-26T14:53:37;94197.72;;;13.93;47.55
21828;BME280;11076;47.942;11.804;2023-04-26T14:58:40;94180.63;;;13.99;47.24
21828;BME280;11076;47.942;11.804;2023-04-26T15:03:42;94194.03;;;13.65;46.40
21828;BME280;11076;47.942;11.804;2023-04-26T15:08:45;94184.72;;;13.85;47.87
21828;BME280;11076;47.942;11.804;2023-04-26T15:13:47;94178.34;;;13.74;46.70
21828;BME280;11076;47.942;11.804;2023-04-26T15:18:50;94193.94;;;13.60;47.84
21828;BME280;11076;47.942;11.804;2023-04-26T15:23:52;94175.91;;;12.86;48.17
21828;BME280;11076;47.942;11.804;2023-04-26T15:28:55;94183.59;;;12.83;49.64
21828;BME280;11076;47.942;11.804;2023-04-26T15:33:57;94184.69;;;13.10;48.64
21828;BME280;11076;47.942;11.804;2023-04-26T15:39:00;94188.25;;;12.99;48.68
21828;BME280;11076;47.942;11.804;2023-04-26T15:44:02;94181.00;;;13.00;50.15
21828;BME280;11076;47.942;11.804;2023-04-26T15:49:05;94177.56;;;13.16;49.05
21828;BME280;11076;47.942;11.804;2023-04-26T15:54:07;94179.50;;;13.21;47.74
21828;BME280;11076;47.942;11.804;2023-04-26T15:59:10;94180.50;;;12.74;48.39
21828;BME280;11076;47.942;11.804;2023-04-26T16:04:12;94179.03;;;12.19;50.05
21828;BME280;11076;47.942;11.804;2023-04-26T16:09:15;94188.59;;;11.91;51.79
21828;BME280;11076;47.942;11.804;2023-04-26T16:14:24;94192.00;;;12.10;52.64
21828;BME280;11076;47.942;11.804;2023-04-26T16:19:26;94193.28;;;11.54;53.92
21828;BME280;11076;47.942;11.804;2023-04-26T16:24:29;94210.72;;;11.45;54.35
21828;BME280;11076;47.942;11.804;2023-04-26T16:29:31;94210.94;;;11.13;55.90
21828;BME280;11076;47.942;11.804;2023-04-26T16:34:34;94203.19;;;11.23;56.68
21828;BME280;11076;47.942;11.804;2023-04-26T16:39:36;94201.03;;;11.44;56.22
21828;BME280;11076;47.942;11.804;2023-04-26T16:44:38;94203.03;;;11.06;56.49
21828;BME280;11076;47.942;11.804;2023-04-26T16:49:41;94202.66;;;11.03;57.57
21828;BME280;11076;47.942;11.804;2023-04-26T16:54:44;94198.81;;;10.80;58.03
21828;BME280;11076;47.942;11.804;2023-04-26T16:59:46;94202.47;;;10.49;59.07
21828;BME280;11076;47.942;11.804;2023-04-26T17:04:48;94206.06;;;10.18;60.13
21828;BME280;11076;47.942;11.804;2023-04-26T17:09:51;94210.97;;;9.70;61.76
21828;BME280;11076;47.942;11.804;2023-04-26T17:14:56;94217.41;;;9.63;61.21
21828;BME280;11076;47.942;11.804;2023-04-26T17:19:58;94221.94;;;9.62;60.92
21828;BME280;11076;47.942;11.804;2023-04-26T17:25:00;94226.75;;;9.47;62.05
21828;BME280;11076;47.942;11.804;2023-04-26T17:30:03;94231.16;;;9.34;63.13
21828;BME280;11076;47.942;11.804;2023-04-26T17:35:05;94232.19;;;9.33;62.94
21828;BME280;11076;47.942;11.804;2023-04-26T17:40:09;94235.13;;;9.25;63.14
21828;BME280;11076;47.942;11.804;2023-04-26T17:45:11;94238.84;;;9.18;63.02
21828;BME280;11076;47.942;11.804;2023-04-26T17:50:14;94247.31;;;9.08;64.08
21828;BME280;11076;47.942;11.804;2023-04-26T17:55:18;94257.38;;;8.99;64.23
21828;BME280;11076;47.942;11.804;2023-04-26T18:00:21;94264.63;;;8.85;64.97
21828;BME280;11076;47.942;11.804;2023-04-26T18:05:24;94254.63;;;8.67;67.61
21828;BME280;11076;47.942;11.804;2023-04-26T18:10:27;94260.84;;;8.54;68.46
21828;BME280;11076;47.942;11.804;2023-04-26T18:15:29;94269.22;;;8.51;69.55
21828;BME280;11076;47.942;11.804;2023-04-26T18:20:34;94273.34;;;8.41;69.43
21828;BME280;11076;47.942;11.804;2023-04-26T18:25:37;94284.22;;;8.32;69.95
21828;BME280;11076;47.942;11.804;2023-04-26T18:30:39;94278.09;;;8.19;69.18
21828;BME280;11076;47.942;11.804;2023-04-26T18:35:41;94282.41;;;8.06;70.09
21828;BME280;11076;47.942;11.804;2023-04-26T18:40:45;94288.94;;;8.10;70.91
21828;BME280;11076;47.942;11.804;2023-04-26T18:45:48;94309.44;;;8.16;71.85
21828;BME280;11076;47.942;11.804;2023-04-26T18:50:51;94300.63;;;8.09;72.63
21828;BME280;11076;47.942;11.804;2023-04-26T18:55:55;94310.66;;;7.74;73.80
21828;BME280;11076;47.942;11.804;2023-04-26T19:00:57;94319.94;;;7.30;74.70
21828;BME280;11076;47.942;11.804;2023-04-26T19:05:59;94323.75;;;7.01;76.65
21828;BME280;11076;47.942;11.804;2023-04-26T19:11:02;94326.50;;;6.79;76.81
21828;BME280;11076;47.942;11.804;2023-04-26T19:16:05;94329.72;;;6.68;78.07
21828;BME280;11076;47.942;11.804;2023-04-26T19:21:09;94330.84;;;6.52;78.49
21828;BME280;11076;47.942;11.804;2023-04-26T19:26:11;94327.47;;;6.36;79.81
21828;BME280;11076;47.942;11.804;2023-04-26T19:31:14;94335.59;;;6.28;80.23
21828;BME280;11076;47.942;11.804;2023-04-26T19:36:16;94345.59;;;6.26;81.06
21828;BME280;11076;47.942;11.804;2023-04-26T19:41:18;94339.41;;;6.47;81.67
21828;BME280;11076;47.942;11.804;2023-04-26T19:46:21;94338.88;;;6.59;81.37
21828;BME280;11076;47.942;11.804;2023-04-26T19:51:23;94338.16;;;6.43;82.06
21828;BME280;11076;47.942;11.804;2023-04-26T19:56:25;94343.84;;;6.40;82.40
21828;BME280;11076;47.942;11.804;2023-04-26T20:01:28;94344.19;;;6.30;81.92
21828;BME280;11076;47.942;11.804;2023-04-26T20:06:30;94337.94;;;6.16;82.19
21828;BME280;11076;47.942;11.804;2023-04-26T20:11:34;94345.09;;;6.16;82.81
21828;BME280;11076;47.942;11.804;2023-04-26T20:16:36;94344.09;;;6.17;83.39
21828;BME280;11076;47.942;11.804;2023-04-26T20:21:39;94348.81;;;6.22;82.88
21828;BME280;11076;47.942;11.804;2023-04-26T20:26:41;94340.75;;;6.08;83.74
21828;BME280;11076;47.942;11.804;2023-04-26T20:31:44;94345.22;;;6.01;84.43
21828;BME280;11076;47.942;11.804;2023-04-26T20:36:46;94352.44;;;5.92;84.84
21828;BME280;11076;47.942;11.804;2023-04-26T20:41:48;94350.84;;;5.76;87.17
21828;BME280;11076;47.942;11.804;2023-04-26T20:46:51;94343.16;;;5.60;87.89
21828;BME280;11076;47.942;11.804;2023-04-26T20:51:53;94348.31;;;5.47;88.49
21828;BME280;11076;47.942;11.804;2023-04-26T20:56:56;94347.44;;;5.40;89.40
21828;BME280;11076;47.942;11.804;2023-04-26T21:01:58;94353.13;;;5.36;89.31
21828;BME280;11076;47.942;11.804;2023-04-26T21:07:01;94359.44;;;5.35;88.35
21828;BME280;11076;47.942;11.804;2023-04-26T21:12:04;94351.78;;;5.26;88.28
21828;BME280;11076;47.942;11.804;2023-04-26T21:17:06;94347.53;;;5.10;88.51
21828;BME280;11076;47.942;11.804;2023-04-26T21:22:09;94358.41;;;5.00;89.52
21828;BME280;11076;47.942;11.804;2023-04-26T21:27:11;94368.19;;;5.00;89.31
21828;BME280;11076;47.942;11.804;2023-04-26T21:32:13;94363.31;;;5.03;89.59
21828;BME280;11076;47.942;11.804;2023-04-26T21:37:16;94368.34;;;5.13;90.23
21828;BME280;11076;47.942;11.804;2023-04-26T21:42:19;94364.22;;;5.25;90.14
21828;BME280;11076;47.942;11.804;2023-04-26T21:47:22;94362.50;;;5.39;90.12
21828;BME280;11076;47.942;11.804;2023-04-26T21:52:24;94360.25;;;5.36;90.00
21828;BME280;11076;47.942;11.804;2023-04-26T21:57:27;94357.09;;;5.26;90.20
21828;BME280;11076;47.942;11.804;2023-04-26T22:02:29;94364.41;;;5.09;91.68
21828;BME280;11076;47.942;11.804;2023-04-26T22:07:32;94362.06;;;4.99;92.21
21828;BME280;11076;47.942;11.804;2023-04-26T22:12:34;94364.34;;;4.87;93.45
21828;BME280;11076;47.942;11.804;2023-04-26T22:17:37;94364.09;;;4.82;92.97
21828;BME280;11076;47.942;11.804;2023-04-26T22:22:39;94361.28;;;4.84;93.09
21828;BME280;11076;47.942;11.804;2023-04-26T22:27:42;94363.72;;;4.85;92.46
21828;BME280;11076;47.942;11.804;2023-04-26T22:32:44;94359.78;;;4.81;92.00
21828;BME280;11076;47.942;11.804;2023-04-26T22:37:47;94362.19;;;4.76;92.33
21828;BME280;11076;47.942;11.804;2023-04-26T22:42:49;94366.28;;;4.78;92.88
21828;BME280;11076;47.942;11.804;2023-04-26T22:47:52;94368.38;;;4.83;92.99
21828;BME280;11076;47.942;11.804;2023-04-26T22:52:54;94369.66;;;4.87;93.12
21828;BME280;11076;47.942;11.804;2023-04-26T22:57:57;94358.69;;;4.90;93.01
21828;BME280;11076;47.942;11.804;2023-04-26T23:02:59;94371.59;;;4.93;93.61
21828;BME280;11076;47.942;11.804;2023-04-26T23:08:01;94361.81;;;4.79;93.99
21828;BME280;11076;47.942;11.804;2023-04-26T23:13:05;94377.88;;;4.63;95.81
21828;BME280;11076;47.942;11.804;2023-04-26T23:18:07;94369.38;;;4.67;95.99
21828;BME280;11076;47.942;11.804;2023-04-26T23:23:10;94371.59;;;4.78;95.83
21828;BME280;11076;47.942;11.804;2023-04-26T23:28:13;94364.09;;;4.82;95.60
21828;BME280;11076;47.942;11.804;2023-04-26T23:33:15;94369.84;;;4.86;95.50
21828;BME280;11076;47.942;11.804;2023-04-26T23:38:18;94369.00;;;4.85;94.82
21828;BME280;11076;47.942;11.804;2023-04-26T23:43:20;94359.78;;;4.81;95.28
21828;BME280;11076;47.942;11.804;2023-04-26T23:48:23;94355.63;;;4.72;95.04
21828;BME280;11076;47.942;11.804;2023-04-26T23:53:25;94355.50;;;4.65;95.13
21828;BME280;11076;47.942;11.804;2023-04-26T23:58:30;94361.34;;;4.61;95.44
